sensor_id;sensor_type;location;lat;lon;timestamp;pressure;altitude;pressure_sealevel;temperature;humidity
12471;BME280;36499;46.484;13.832;2023-06-26T00:01:36;93357.84;;;16.45;78.52
12471;BME280;36499;46.484;13.832;2023-06-26T00:04:06;93357.31;;;16.43;78.51
12471;BME280;36499;46.484;13.832;2023-06-26T00:06:33;93361.78;;;16.42;78.73
12471;BME280;36499;46.484;13.832;2023-06-26T00:09:01;93356.50;;;16.42;78.91
12471;BME280;36499;46.484;13.832;2023-06-26T00:11:28;93360.97;;;16.42;79.28
12471;BME280;36499;46.484;13.832;2023-06-26T00:13:59;93367.53;;;16.39;78.54
12471;BME280;36499;46.484;13.832;2023-06-26T00:16:26;93364.09;;;16.39;78.44
12471;BME280;36499;46.484;13.832;2023-06-26T00:18:53;93365.03;;;16.32;78.33
12471;BME280;36499;46.484;13.832;2023-06-26T00:21:20;93362.91;;;16.29;78.35
12471;BME280;36499;46.484;13.832;2023-06-26T00:23:47;93368.66;;;16.26;78.41
12471;BME280;36499;46.484;13.832;2023-06-26T00:26:16;93361.47;;;16.22;78.84
12471;BME280;36499;46.484;13.832;2023-06-26T00:28:43;93369.75;;;16.14;78.95
12471;BME280;36499;46.484;13.832;2023-06-26T00:31:10;93365.13;;;16.04;78.89
12471;BME280;36499;46.484;13.832;2023-06-26T00:33:37;93371.59;;;15.97;79.51
12471;BME280;36499;46.484;13.832;2023-06-26T00:36:04;93372.31;;;15.92;80.50
12471;BME280;36499;46.484;13.832;2023-06-26T00:38:31;93377.34;;;15.94;80.34
12471;BME280;36499;46.484;13.832;2023-06-26T00:40:58;93376.75;;;15.92;80.03
12471;BME280;36499;46.484;13.832;2023-06-26T00:43:27;93375.88;;;15.86;79.22
12471;BME280;36499;46.484;13.832;2023-06-26T00:45:54;93364.47;;;15.80;79.73
12471;BME280;36499;46.484;13.832;2023-06-26T00:48:21;93374.19;;;15.80;80.15
12471;BME280;36499;46.484;13.832;2023-06-26T00:50:48;93368.94;;;15.80;80.15
12471;BME280;36499;46.484;13.832;2023-06-26T00:53:15;93368.13;;;15.79;79.23
12471;BME280;36499;46.484;13.832;2023-06-26T00:55:42;93365.41;;;15.58;80.81
12471;BME280;36499;46.484;13.832;2023-06-26T00:58:10;93366.41;;;15.57;81.07
12471;BME280;36499;46.484;13.832;2023-06-26T01:00:38;93366.09;;;15.53;81.15
12471;BME280;36499;46.484;13.832;2023-06-26T01:03:05;93364.75;;;15.51;81.29
12471;BME280;36499;46.484;13.832;2023-06-26T01:05:33;93366.69;;;15.44;82.71
12471;BME280;36499;46.484;13.832;2023-06-26T01:08:00;93366.81;;;15.37;83.44
12471;BME280;36499;46.484;13.832;2023-06-26T01:10:27;93366.47;;;15.33;83.50
12471;BME280;36499;46.484;13.832;2023-06-26T01:12:55;93360.47;;;15.33;83.62
12471;BME280;36499;46.484;13.832;2023-06-26T01:15:22;93352.66;;;15.38;83.65
12471;BME280;36499;46.484;13.832;2023-06-26T01:17:51;93359.84;;;15.43;82.95
12471;BME280;36499;46.484;13.832;2023-06-26T01:20:19;93362.25;;;15.44;83.17
12471;BME280;36499;46.484;13.832;2023-06-26T01:22:58;93363.00;;;15.45;82.62
12471;BME280;36499;46.484;13.832;2023-06-26T01:25:38;93351.81;;;15.49;82.60
12471;BME280;36499;46.484;13.832;2023-06-26T01:28:10;93351.00;;;15.49;82.20
12471;BME280;36499;46.484;13.832;2023-06-26T01:30:43;93347.16;;;15.40;82.34
12471;BME280;36499;46.484;13.832;2023-06-26T01:33:12;93352.69;;;15.26;82.74
12471;BME280;36499;46.484;13.832;2023-06-26T01:35:40;93351.66;;;15.27;82.65
12471;BME280;36499;46.484;13.832;2023-06-26T01:38:15;93351.91;;;15.26;83.00
12471;BME280;36499;46.484;13.832;2023-06-26T01:40:43;93343.69;;;15.22;83.24
12471;BME280;36499;46.484;13.832;2023-06-26T01:43:20;93341.84;;;15.23;83.36
12471;BME280;36499;46.484;13.832;2023-06-26T01:45:54;93345.50;;;15.22;83.96
12471;BME280;36499;46.484;13.832;2023-06-26T01:48:30;93341.06;;;15.22;83.24
12471;BME280;36499;46.484;13.832;2023-06-26T01:50:59;93340.25;;;15.22;83.18
12471;BME280;36499;46.484;13.832;2023-06-26T01:53:37;93344.16;;;15.19;82.89
12471;BME280;36499;46.484;13.832;2023-06-26T01:56:13;93339.72;;;15.20;82.99
12471;BME280;36499;46.484;13.832;2023-06-26T01:58:46;93339.16;;;15.18;82.75
12471;BME280;36499;46.484;13.832;2023-06-26T02:01:14;93350.44;;;15.18;83.01
12471;BME280;36499;46.484;13.832;2023-06-26T02:03:41;93350.91;;;15.15;83.14
12471;BME280;36499;46.484;13.832;2023-06-26T02:06:08;93350.09;;;15.15;83.05
12471;BME280;36499;46.484;13.832;2023-06-26T02:08:35;93351.72;;;15.16;83.20
12471;BME280;36499;46.484;13.832;2023-06-26T02:11:02;93343.97;;;15.09;82.43
12471;BME280;36499;46.484;13.832;2023-06-26T02:13:29;93347.50;;;15.03;82.89
12471;BME280;36499;46.484;13.832;2023-06-26T02:15:58;93344.16;;;14.91;83.81
12471;BME280;36499;46.484;13.832;2023-06-26T02:18:25;93353.63;;;14.80;84.80
12471;BME280;36499;46.484;13.832;2023-06-26T02:20:52;93341.22;;;14.76;85.35
12471;BME280;36499;46.484;13.832;2023-06-26T02:23:19;93342.56;;;14.78;85.29
12471;BME280;36499;46.484;13.832;2023-06-26T02:25:46;93342.91;;;14.82;84.80
12471;BME280;36499;46.484;13.832;2023-06-26T02:28:13;93345.88;;;14.74;84.45
12471;BME280;36499;46.484;13.832;2023-06-26T02:30:40;93347.25;;;14.65;84.28
12471;BME280;36499;46.484;13.832;2023-06-26T02:33:08;93351.16;;;14.62;84.66
12471;BME280;36499;46.484;13.832;2023-06-26T02:35:36;93348.19;;;14.59;85.12
12471;BME280;36499;46.484;13.832;2023-06-26T02:38:03;93356.88;;;14.59;85.61
12471;BME280;36499;46.484;13.832;2023-06-26T02:40:30;93351.28;;;14.56;85.41
12471;BME280;36499;46.484;13.832;2023-06-26T02:42:57;93348.53;;;14.51;85.96
12471;BME280;36499;46.484;13.832;2023-06-26T02:45:24;93353.69;;;14.46;86.69
12471;BME280;36499;46.484;13.832;2023-06-26T02:47:51;93348.78;;;14.37;87.96
12471;BME280;36499;46.484;13.832;2023-06-26T02:50:20;93344.78;;;14.35;88.58
12471;BME280;36499;46.484;13.832;2023-06-26T02:52:47;93342.97;;;14.35;88.52
12471;BME280;36499;46.484;13.832;2023-06-26T02:55:18;93345.91;;;14.39;88.60
12471;BME280;36499;46.484;13.832;2023-06-26T02:57:45;93338.38;;;14.43;88.41
12471;BME280;36499;46.484;13.832;2023-06-26T03:00:14;93340.31;;;14.47;88.44
12471;BME280;36499;46.484;13.832;2023-06-26T03:02:41;93341.25;;;14.41;88.58
12471;BME280;36499;46.484;13.832;2023-06-26T03:05:08;93347.63;;;14.33;89.06
12471;BME280;36499;46.484;13.832;2023-06-26T03:07:36;93345.88;;;14.27;89.49
12471;BME280;36499;46.484;13.832;2023-06-26T03:10:04;93332.44;;;14.12;90.88
12471;BME280;36499;46.484;13.832;2023-06-26T03:12:31;93346.13;;;14.03;91.59
12471;BME280;36499;46.484;13.832;2023-06-26T03:14:58;93340.06;;;14.02;92.22
12471;BME280;36499;46.484;13.832;2023-06-26T03:17:25;93335.06;;;14.12;91.71
12471;BME280;36499;46.484;13.832;2023-06-26T03:19:52;93344.19;;;14.21;91.44
12471;BME280;36499;46.484;13.832;2023-06-26T03:22:19;93340.66;;;14.27;90.97
12471;BME280;36499;46.484;13.832;2023-06-26T03:24:48;93343.06;;;14.29;90.97
12471;BME280;36499;46.484;13.832;2023-06-26T03:27:15;93337.81;;;14.29;91.02
12471;BME280;36499;46.484;13.832;2023-06-26T03:29:42;93334.84;;;14.25;91.48
12471;BME280;36499;46.484;13.832;2023-06-26T03:32:09;93337.22;;;14.27;91.55
12471;BME280;36499;46.484;13.832;2023-06-26T03:34:36;93346.59;;;14.23;92.01
12471;BME280;36499;46.484;13.832;2023-06-26T03:37:03;93336.91;;;14.35;91.40
12471;BME280;36499;46.484;13.832;2023-06-26T03:39:30;93344.09;;;14.39;90.63
12471;BME280;36499;46.484;13.832;2023-06-26T03:41:59;93337.94;;;14.46;89.97
12471;BME280;36499;46.484;13.832;2023-06-26T03:44:26;93341.47;;;14.39;89.32
12471;BME280;36499;46.484;13.832;2023-06-26T03:46:54;93343.38;;;14.21;90.33
12471;BME280;36499;46.484;13.832;2023-06-26T03:49:21;93343.84;;;14.18;91.16
12471;BME280;36499;46.484;13.832;2023-06-26T03:51:48;93340.22;;;14.19;91.59
12471;BME280;36499;46.484;13.832;2023-06-26T03:54:15;93345.47;;;14.19;91.80
12471;BME280;36499;46.484;13.832;2023-06-26T03:56:42;93339.41;;;14.18;92.25
12471;BME280;36499;46.484;13.832;2023-06-26T03:59:11;93341.09;;;14.24;92.11
12471;BME280;36499;46.484;13.832;2023-06-26T04:01:38;93342.38;;;14.33;91.29
12471;BME280;36499;46.484;13.832;2023-06-26T04:04:05;93339.44;;;14.42;90.50
12471;BME280;36499;46.484;13.832;2023-06-26T04:06:32;93335.75;;;14.43;89.88
12471;BME280;36499;46.484;13.832;2023-06-26T04:09:00;93334.53;;;14.45;89.50
12471;BME280;36499;46.484;13.832;2023-06-26T04:11:28;93338.97;;;14.45;89.57
12471;BME280;36499;46.484;13.832;2023-06-26T04:13:55;93333.84;;;14.38;89.57
12471;BME280;36499;46.484;13.832;2023-06-26T04:16:24;93332.78;;;14.27;90.91
12471;BME280;36499;46.484;13.832;2023-06-26T04:18:52;93332.34;;;14.30;91.23
12471;BME280;36499;46.484;13.832;2023-06-26T04:21:22;93335.97;;;14.29;91.47
12471;BME280;36499;46.484;13.832;2023-06-26T04:23:51;93325.03;;;14.32;91.40
12471;BME280;36499;46.484;13.832;2023-06-26T04:26:18;93335.53;;;14.32;91.45
12471;BME280;36499;46.484;13.832;2023-06-26T04:28:45;93340.66;;;14.39;91.20
12471;BME280;36499;46.484;13.832;2023-06-26T04:31:12;93335.53;;;14.44;90.39
12471;BME280;36499;46.484;13.832;2023-06-26T04:33:40;93335.31;;;14.46;89.54
12471;BME280;36499;46.484;13.832;2023-06-26T04:36:07;93345.34;;;14.49;89.69
12471;BME280;36499;46.484;13.832;2023-06-26T04:38:35;93348.53;;;14.51;89.75
12471;BME280;36499;46.484;13.832;2023-06-26T04:41:02;93339.19;;;14.55;89.71
12471;BME280;36499;46.484;13.832;2023-06-26T04:43:29;93345.09;;;14.62;89.63
12471;BME280;36499;46.484;13.832;2023-06-26T04:45:56;93339.28;;;14.60;90.32
12471;BME280;36499;46.484;13.832;2023-06-26T04:48:24;93339.84;;;14.62;91.06
12471;BME280;36499;46.484;13.832;2023-06-26T04:50:54;93344.75;;;14.70;91.24
12471;BME280;36499;46.484;13.832;2023-06-26T04:53:23;93330.25;;;14.79;91.13
12471;BME280;36499;46.484;13.832;2023-06-26T04:55:51;93338.31;;;14.89;90.36
12471;BME280;36499;46.484;13.832;2023-06-26T04:58:18;93336.69;;;15.00;89.74
12471;BME280;36499;46.484;13.832;2023-06-26T05:00:46;93339.28;;;15.11;89.88
12471;BME280;36499;46.484;13.832;2023-06-26T05:03:17;93332.16;;;15.23;89.32
12471;BME280;36499;46.484;13.832;2023-06-26T05:05:45;93335.28;;;15.37;89.95
12471;BME280;36499;46.484;13.832;2023-06-26T05:08:17;93335.03;;;15.50;89.09
12471;BME280;36499;46.484;13.832;2023-06-26T05:10:45;93330.75;;;15.61;88.71
12471;BME280;36499;46.484;13.832;2023-06-26T05:13:13;93326.56;;;15.60;87.82
12471;BME280;36499;46.484;13.832;2023-06-26T05:15:43;93321.94;;;15.67;88.12
12471;BME280;36499;46.484;13.832;2023-06-26T05:18:10;93328.16;;;15.77;87.83
12471;BME280;36499;46.484;13.832;2023-06-26T05:20:39;93315.75;;;15.90;87.88
12471;BME280;36499;46.484;13.832;2023-06-26T05:23:06;93319.41;;;16.05;87.18
12471;BME280;36499;46.484;13.832;2023-06-26T05:25:36;93309.66;;;16.22;87.38
12471;BME280;36499;46.484;13.832;2023-06-26T05:28:04;93304.06;;;16.36;87.29
12471;BME280;36499;46.484;13.832;2023-06-26T05:30:32;93300.84;;;16.50;86.55
12471;BME280;36499;46.484;13.832;2023-06-26T05:33:02;93303.00;;;16.75;84.99
12471;BME280;36499;46.484;13.832;2023-06-26T05:35:30;93302.47;;;16.95;84.21
12471;BME280;36499;46.484;13.832;2023-06-26T05:37:58;93303.97;;;17.12;83.65
12471;BME280;36499;46.484;13.832;2023-06-26T05:40:26;93308.38;;;17.28;82.77
12471;BME280;36499;46.484;13.832;2023-06-26T05:42:55;93307.00;;;17.48;82.11
12471;BME280;36499;46.484;13.832;2023-06-26T05:45:22;93299.94;;;17.53;80.82
12471;BME280;36499;46.484;13.832;2023-06-26T05:47:49;93295.94;;;17.72;80.56
12471;BME280;36499;46.484;13.832;2023-06-26T05:50:18;93290.56;;;17.94;79.23
12471;BME280;36499;46.484;13.832;2023-06-26T05:52:47;93285.00;;;17.91;78.29
12471;BME280;36499;46.484;13.832;2023-06-26T05:55:15;93281.31;;;17.92;78.18
12471;BME280;36499;46.484;13.832;2023-06-26T05:57:43;93287.25;;;18.09;78.42
12471;BME280;36499;46.484;13.832;2023-06-26T06:00:14;93289.75;;;18.31;76.38
12471;BME280;36499;46.484;13.832;2023-06-26T06:02:42;93282.16;;;18.39;75.39
12471;BME280;36499;46.484;13.832;2023-06-26T06:05:10;93283.38;;;18.63;75.53
12471;BME280;36499;46.484;13.832;2023-06-26T06:07:37;93276.81;;;18.71;74.41
12471;BME280;36499;46.484;13.832;2023-06-26T06:10:05;93273.44;;;18.86;74.67
12471;BME280;36499;46.484;13.832;2023-06-26T06:12:32;93271.09;;;18.99;73.35
12471;BME280;36499;46.484;13.832;2023-06-26T06:14:59;93271.41;;;19.08;72.60
12471;BME280;36499;46.484;13.832;2023-06-26T06:17:28;93258.78;;;19.30;71.67
12471;BME280;36499;46.484;13.832;2023-06-26T06:19:55;93265.47;;;19.53;71.27
12471;BME280;36499;46.484;13.832;2023-06-26T06:22:22;93256.47;;;19.64;70.68
12471;BME280;36499;46.484;13.832;2023-06-26T06:24:50;93253.84;;;19.74;70.08
12471;BME280;36499;46.484;13.832;2023-06-26T06:27:17;93254.09;;;19.83;69.20
12471;BME280;36499;46.484;13.832;2023-06-26T06:29:44;93258.34;;;19.89;68.79
12471;BME280;36499;46.484;13.832;2023-06-26T06:32:11;93249.31;;;20.15;68.51
12471;BME280;36499;46.484;13.832;2023-06-26T06:34:40;93254.88;;;20.19;67.34
12471;BME280;36499;46.484;13.832;2023-06-26T06:37:07;93246.66;;;20.40;67.46
12471;BME280;36499;46.484;13.832;2023-06-26T06:39:34;93245.84;;;20.45;66.27
12471;BME280;36499;46.484;13.832;2023-06-26T06:42:01;93242.16;;;20.46;65.18
12471;BME280;36499;46.484;13.832;2023-06-26T06:44:28;93242.88;;;20.67;65.70
12471;BME280;36499;46.484;13.832;2023-06-26T06:46:56;93247.06;;;20.83;64.97
12471;BME280;36499;46.484;13.832;2023-06-26T06:49:23;93240.16;;;20.92;65.74
12471;BME280;36499;46.484;13.832;2023-06-26T06:51:51;93232.38;;;21.05;64.89
12471;BME280;36499;46.484;13.832;2023-06-26T06:54:18;93232.88;;;21.23;64.41
12471;BME280;36499;46.484;13.832;2023-06-26T06:56:46;93231.66;;;21.44;64.68
12471;BME280;36499;46.484;13.832;2023-06-26T06:59:13;93232.38;;;21.54;63.21
12471;BME280;36499;46.484;13.832;2023-06-26T07:01:40;93227.03;;;21.65;62.88
12471;BME280;36499;46.484;13.832;2023-06-26T07:04:07;93219.41;;;21.87;61.80
12471;BME280;36499;46.484;13.832;2023-06-26T07:06:34;93219.13;;;21.93;60.90
12471;BME280;36499;46.484;13.832;2023-06-26T07:09:03;93222.44;;;22.09;60.68
12471;BME280;36499;46.484;13.832;2023-06-26T07:11:31;93219.22;;;22.12;61.69
12471;BME280;36499;46.484;13.832;2023-06-26T07:13:58;93222.09;;;22.16;60.21
12471;BME280;36499;46.484;13.832;2023-06-26T07:16:25;93217.84;;;22.43;60.54
12471;BME280;36499;46.484;13.832;2023-06-26T07:18:52;93205.34;;;22.44;58.54
12471;BME280;36499;46.484;13.832;2023-06-26T07:21:20;93204.75;;;22.52;58.81
12471;BME280;36499;46.484;13.832;2023-06-26T07:23:47;93207.63;;;22.56;58.98
12471;BME280;36499;46.484;13.832;2023-06-26T07:26:16;93209.72;;;22.82;59.92
12471;BME280;36499;46.484;13.832;2023-06-26T07:28:43;93204.28;;;22.92;58.18
12471;BME280;36499;46.484;13.832;2023-06-26T07:31:10;93207.75;;;23.12;58.06
12471;BME280;36499;46.484;13.832;2023-06-26T07:33:37;93197.34;;;23.15;55.00
12471;BME280;36499;46.484;13.832;2023-06-26T07:36:05;93203.88;;;23.23;54.75
12471;BME280;36499;46.484;13.832;2023-06-26T07:38:32;93193.50;;;23.40;55.09
12471;BME280;36499;46.484;13.832;2023-06-26T07:40:59;93196.66;;;23.47;55.19
12471;BME280;36499;46.484;13.832;2023-06-26T07:43:40;93199.38;;;23.61;52.91
12471;BME280;36499;46.484;13.832;2023-06-26T07:46:07;93195.41;;;23.77;55.19
12471;BME280;36499;46.484;13.832;2023-06-26T07:48:34;93197.00;;;23.92;54.31
12471;BME280;36499;46.484;13.832;2023-06-26T07:51:01;93198.00;;;24.14;54.56
12471;BME280;36499;46.484;13.832;2023-06-26T07:53:28;93188.94;;;24.29;53.46
12471;BME280;36499;46.484;13.832;2023-06-26T07:55:55;93181.72;;;24.43;51.98
12471;BME280;36499;46.484;13.832;2023-06-26T07:58:22;93189.94;;;24.47;51.29
12471;BME280;36499;46.484;13.832;2023-06-26T08:00:51;93189.16;;;24.46;49.61
12471;BME280;36499;46.484;13.832;2023-06-26T08:03:18;93183.75;;;24.65;49.84
12471;BME280;36499;46.484;13.832;2023-06-26T08:05:45;93186.38;;;24.78;49.86
12471;BME280;36499;46.484;13.832;2023-06-26T08:08:12;93182.03;;;24.82;49.35
12471;BME280;36499;46.484;13.832;2023-06-26T08:10:39;93189.38;;;24.91;48.29
12471;BME280;36499;46.484;13.832;2023-06-26T08:13:06;93185.31;;;25.07;50.05
12471;BME280;36499;46.484;13.832;2023-06-26T08:15:33;93177.78;;;25.22;48.93
12471;BME280;36499;46.484;13.832;2023-06-26T08:18:01;93175.13;;;25.45;48.61
12471;BME280;36499;46.484;13.832;2023-06-26T08:20:28;93173.13;;;25.50;45.17
12471;BME280;36499;46.484;13.832;2023-06-26T08:22:55;93173.97;;;25.37;45.18
12471;BME280;36499;46.484;13.832;2023-06-26T08:25:22;93169.06;;;25.66;47.62
12471;BME280;36499;46.484;13.832;2023-06-26T08:27:49;93168.50;;;25.56;44.48
12471;BME280;36499;46.484;13.832;2023-06-26T08:30:18;93157.03;;;25.77;43.32
12471;BME280;36499;46.484;13.832;2023-06-26T08:32:45;93160.13;;;25.93;45.93
12471;BME280;36499;46.484;13.832;2023-06-26T08:35:13;93152.75;;;25.99;42.70
12471;BME280;36499;46.484;13.832;2023-06-26T08:37:41;93151.34;;;26.23;42.05
12471;BME280;36499;46.484;13.832;2023-06-26T08:40:09;93157.16;;;26.56;42.33
12471;BME280;36499;46.484;13.832;2023-06-26T08:42:36;93155.34;;;26.83;40.80
12471;BME280;36499;46.484;13.832;2023-06-26T08:45:04;93156.81;;;26.89;35.90
12471;BME280;36499;46.484;13.832;2023-06-26T08:47:34;93156.25;;;27.26;35.26
12471;BME280;36499;46.484;13.832;2023-06-26T08:50:08;93156.28;;;27.60;35.98
12471;BME280;36499;46.484;13.832;2023-06-26T08:52:43;93152.47;;;27.96;41.04
12471;BME280;36499;46.484;13.832;2023-06-26T08:55:15;93150.69;;;28.26;44.73
12471;BME280;36499;46.484;13.832;2023-06-26T08:57:43;93150.34;;;28.36;44.79
12471;BME280;36499;46.484;13.832;2023-06-26T09:00:12;93152.72;;;28.37;44.16
12471;BME280;36499;46.484;13.832;2023-06-26T09:02:41;93150.59;;;28.51;43.40
12471;BME280;36499;46.484;13.832;2023-06-26T09:05:08;93145.50;;;28.67;45.18
12471;BME280;36499;46.484;13.832;2023-06-26T09:07:35;93138.53;;;28.66;42.63
12471;BME280;36499;46.484;13.832;2023-06-26T09:10:05;93141.88;;;28.72;42.37
12471;BME280;36499;46.484;13.832;2023-06-26T09:12:33;93142.81;;;28.76;46.07
12471;BME280;36499;46.484;13.832;2023-06-26T09:15:01;93134.56;;;28.81;43.14
12471;BME280;36499;46.484;13.832;2023-06-26T09:17:30;93136.00;;;28.78;42.77
12471;BME280;36499;46.484;13.832;2023-06-26T09:19:58;93141.59;;;28.94;42.33
12471;BME280;36499;46.484;13.832;2023-06-26T09:22:26;93135.25;;;28.98;43.43
12471;BME280;36499;46.484;13.832;2023-06-26T09:24:53;93143.72;;;29.09;44.23
12471;BME280;36499;46.484;13.832;2023-06-26T09:27:22;93135.28;;;29.19;42.00
12471;BME280;36499;46.484;13.832;2023-06-26T09:29:50;93135.53;;;29.26;40.20
12471;BME280;36499;46.484;13.832;2023-06-26T09:32:17;93144.88;;;29.29;42.41
12471;BME280;36499;46.484;13.832;2023-06-26T09:34:44;93143.31;;;29.48;42.32
12471;BME280;36499;46.484;13.832;2023-06-26T09:37:12;93139.44;;;29.58;41.75
12471;BME280;36499;46.484;13.832;2023-06-26T09:39:40;93129.44;;;29.79;41.21
12471;BME280;36499;46.484;13.832;2023-06-26T09:42:08;93130.66;;;29.90;42.38
12471;BME280;36499;46.484;13.832;2023-06-26T09:44:36;93124.50;;;30.02;40.80
12471;BME280;36499;46.484;13.832;2023-06-26T09:47:10;93117.84;;;30.20;40.77
12471;BME280;36499;46.484;13.832;2023-06-26T09:49:40;93114.72;;;30.30;39.29
12471;BME280;36499;46.484;13.832;2023-06-26T09:52:08;93122.16;;;30.45;40.25
12471;BME280;36499;46.484;13.832;2023-06-26T09:54:35;93113.38;;;30.24;37.61
12471;BME280;36499;46.484;13.832;2023-06-26T09:57:09;93121.19;;;30.17;37.69
12471;BME280;36499;46.484;13.832;2023-06-26T09:59:38;93112.72;;;30.27;39.19
12471;BME280;36499;46.484;13.832;2023-06-26T10:02:06;93120.22;;;30.34;38.72
12471;BME280;36499;46.484;13.832;2023-06-26T10:04:35;93108.13;;;30.40;38.08
12471;BME280;36499;46.484;13.832;2023-06-26T10:07:07;93111.72;;;30.32;38.53
12471;BME280;36499;46.484;13.832;2023-06-26T10:09:41;93106.75;;;30.22;39.07
12471;BME280;36499;46.484;13.832;2023-06-26T10:12:14;93108.91;;;30.28;37.58
12471;BME280;36499;46.484;13.832;2023-06-26T10:14:43;93109.13;;;30.35;38.80
12471;BME280;36499;46.484;13.832;2023-06-26T10:17:16;93104.16;;;30.25;35.76
12471;BME280;36499;46.484;13.832;2023-06-26T10:19:47;93103.00;;;30.59;38.43
12471;BME280;36499;46.484;13.832;2023-06-26T10:22:17;93104.00;;;30.79;37.80
12471;BME280;36499;46.484;13.832;2023-06-26T10:24:47;93099.75;;;30.66;35.92
12471;BME280;36499;46.484;13.832;2023-06-26T10:27:19;93105.34;;;30.48;36.38
12471;BME280;36499;46.484;13.832;2023-06-26T10:29:52;93103.78;;;30.60;36.19
12471;BME280;36499;46.484;13.832;2023-06-26T10:32:24;93103.66;;;30.56;36.58
12471;BME280;36499;46.484;13.832;2023-06-26T10:34:52;93099.75;;;30.66;37.83
12471;BME280;36499;46.484;13.832;2023-06-26T10:37:20;93093.44;;;30.37;35.94
12471;BME280;36499;46.484;13.832;2023-06-26T10:39:48;93094.72;;;30.07;36.17
12471;BME280;36499;46.484;13.832;2023-06-26T10:42:17;93087.88;;;29.97;37.64
12471;BME280;36499;46.484;13.832;2023-06-26T10:44:47;93097.22;;;30.12;38.00
12471;BME280;36499;46.484;13.832;2023-06-26T10:47:29;93092.91;;;30.44;36.87
12471;BME280;36499;46.484;13.832;2023-06-26T10:50:16;93091.00;;;30.69;36.58
12471;BME280;36499;46.484;13.832;2023-06-26T10:52:44;93095.59;;;30.92;39.79
12471;BME280;36499;46.484;13.832;2023-06-26T10:55:11;93092.25;;;31.08;36.00
12471;BME280;36499;46.484;13.832;2023-06-26T10:57:44;93090.97;;;31.17;36.13
12471;BME280;36499;46.484;13.832;2023-06-26T11:00:16;93093.22;;;31.27;35.26
12471;BME280;36499;46.484;13.832;2023-06-26T11:02:48;93093.00;;;30.96;35.12
12471;BME280;36499;46.484;13.832;2023-06-26T11:05:24;93100.53;;;30.90;37.77
12471;BME280;36499;46.484;13.832;2023-06-26T11:08:10;93086.75;;;31.04;35.20
12471;BME280;36499;46.484;13.832;2023-06-26T11:10:54;93087.06;;;31.03;34.64
12471;BME280;36499;46.484;13.832;2023-06-26T11:13:27;93087.25;;;31.22;35.79
12471;BME280;36499;46.484;13.832;2023-06-26T11:15:57;93085.13;;;31.27;37.24
12471;BME280;36499;46.484;13.832;2023-06-26T11:18:24;93089.22;;;31.49;35.46
12471;BME280;36499;46.484;13.832;2023-06-26T11:20:51;93092.72;;;31.37;35.85
12471;BME280;36499;46.484;13.832;2023-06-26T11:23:22;93090.00;;;30.85;35.99
12471;BME280;36499;46.484;13.832;2023-06-26T11:25:51;93096.38;;;30.57;36.63
12471;BME280;36499;46.484;13.832;2023-06-26T11:28:21;93093.63;;;30.20;35.31
12471;BME280;36499;46.484;13.832;2023-06-26T11:30:48;93091.25;;;29.74;35.24
12471;BME280;36499;46.484;13.832;2023-06-26T11:33:16;93088.06;;;29.92;37.45
12471;BME280;36499;46.484;13.832;2023-06-26T11:35:43;93088.66;;;30.10;37.38
12471;BME280;36499;46.484;13.832;2023-06-26T11:38:10;93089.59;;;30.26;37.48
12471;BME280;36499;46.484;13.832;2023-06-26T11:40:37;93083.38;;;30.59;36.42
12471;BME280;36499;46.484;13.832;2023-06-26T11:43:04;93077.75;;;30.76;36.25
12471;BME280;36499;46.484;13.832;2023-06-26T11:45:32;93080.47;;;31.12;36.31
12471;BME280;36499;46.484;13.832;2023-06-26T11:48:00;93077.44;;;31.41;36.38
12471;BME280;36499;46.484;13.832;2023-06-26T11:50:29;93081.09;;;31.21;36.73
12471;BME280;36499;46.484;13.832;2023-06-26T11:52:57;93073.72;;;31.06;34.46
12471;BME280;36499;46.484;13.832;2023-06-26T11:55:26;93078.88;;;31.11;35.67
12471;BME280;36499;46.484;13.832;2023-06-26T11:57:54;93077.88;;;31.04;35.36
12471;BME280;36499;46.484;13.832;2023-06-26T12:00:23;93084.66;;;31.25;34.69
12471;BME280;36499;46.484;13.832;2023-06-26T12:02:51;93073.22;;;31.28;35.65
12471;BME280;36499;46.484;13.832;2023-06-26T12:05:18;93082.63;;;31.34;36.11
12471;BME280;36499;46.484;13.832;2023-06-26T12:07:48;93079.47;;;31.45;35.93
12471;BME280;36499;46.484;13.832;2023-06-26T12:10:18;93072.56;;;31.59;36.03
12471;BME280;36499;46.484;13.832;2023-06-26T12:12:46;93070.13;;;31.82;35.12
12471;BME280;36499;46.484;13.832;2023-06-26T12:15:15;93067.78;;;31.96;36.08
12471;BME280;36499;46.484;13.832;2023-06-26T12:17:43;93065.28;;;32.03;34.03
12471;BME280;36499;46.484;13.832;2023-06-26T12:20:20;93064.56;;;32.18;34.48
12471;BME280;36499;46.484;13.832;2023-06-26T12:22:49;93060.72;;;32.19;35.07
12471;BME280;36499;46.484;13.832;2023-06-26T12:25:22;93059.16;;;32.18;34.70
12471;BME280;36499;46.484;13.832;2023-06-26T12:27:50;93060.28;;;32.17;33.83
12471;BME280;36499;46.484;13.832;2023-06-26T12:30:17;93053.41;;;32.20;33.11
12471;BME280;36499;46.484;13.832;2023-06-26T12:32:45;93049.50;;;32.33;33.41
12471;BME280;36499;46.484;13.832;2023-06-26T12:35:13;93052.44;;;32.44;35.30
12471;BME280;36499;46.484;13.832;2023-06-26T12:37:42;93054.97;;;32.52;32.25
12471;BME280;36499;46.484;13.832;2023-06-26T12:40:18;93050.00;;;32.70;35.63
12471;BME280;36499;46.484;13.832;2023-06-26T12:42:47;93050.00;;;32.70;32.71
12471;BME280;36499;46.484;13.832;2023-06-26T12:45:15;93048.00;;;32.83;33.36
12471;BME280;36499;46.484;13.832;2023-06-26T12:47:42;93051.19;;;32.88;32.42
12471;BME280;36499;46.484;13.832;2023-06-26T12:50:12;93043.91;;;32.73;31.89
12471;BME280;36499;46.484;13.832;2023-06-26T12:52:39;93052.97;;;32.65;33.75
12471;BME280;36499;46.484;13.832;2023-06-26T12:55:07;93050.16;;;32.77;33.62
12471;BME280;36499;46.484;13.832;2023-06-26T12:57:36;93054.34;;;32.59;33.17